Harbeson, Delaware
Current Conditions -  °F | °C
As of 2:54 AM on Thursday 27 Nov 2014 (Local Time) from KGED Reporting Station
Overcast Overcast  
Wind Chill: 34°   Ceiling: 4200
Heat Index: 38°   Visibility: 10mi
Dew Point: 34°   Wind: 5mph
Humidity: 86%   Direction: 290°WNW
Pressure: 30"   Gusts: NA
Location:  38.72°N, 75.29°W
Report Text: KGED 270754Z AUTO 29004KT 10SM BKN042 OVC055 03/01 A3000 RMK AO2 SLP160 T00330011
Loading
Personal Weather Stations






























Interactive Weather Map New forecast layout! Learn more

10-Day Weather Forecast

Advertisements
Track Severe Weather on mobile